Time;durP1;ratioP1;P1;durP2;ratioP2;P2;SDS_P1;SDS_P2;PMS_P1;PMS_P2;Temp;Humidity;BMP_temperature;BMP_pressure;BME280_temperature;BME280_humidity;BME280_pressure;Samples;Min_cycle;Max_cycle;Signal;HPM_P1;HPM_P2
2020/12/31 00:02:19;;;;;;;;;;;2.40;99.90;;;;;;5007815;28;19929;-62
2020/12/31 00:04:46;;;;;;;;;;;2.40;99.90;;;;;;5007758;28;19921;-62
2020/12/31 00:07:12;;;;;;;;;;;2.40;99.90;;;;;;5007571;28;19922;-62
2020/12/31 00:09:37;;;;;;;;;;;2.40;99.90;;;;;;5007606;28;19933;-62
2020/12/31 00:12:04;;;;;;;;;;;2.40;99.90;;;;;;5007901;28;19922;-64
2020/12/31 00:14:29;;;;;;;;;;;2.40;99.90;;;;;;5007908;28;20289;-61
2020/12/31 00:16:55;;;;;;;;;;;2.40;99.90;;;;;;5007571;28;19917;-62
2020/12/31 00:19:21;;;;;;;;;;;2.40;99.90;;;;;;5007334;28;19922;-62
2020/12/31 00:21:46;;;;;;;;;;;2.40;99.90;;;;;;5007362;28;20014;-62
2020/12/31 00:24:12;;;;;;;;;;;2.40;99.90;;;;;;5007375;28;19944;-62
2020/12/31 00:26:38;;;;;;;;;;;2.40;99.90;;;;;;5007369;28;20389;-63
2020/12/31 00:29:03;;;;;;;;;;;2.40;99.90;;;;;;5007608;28;19921;-62
2020/12/31 00:31:29;;;;;;;;;;;2.40;99.90;;;;;;5007205;28;20010;-62
2020/12/31 00:33:55;;;;;;;;;;;2.40;99.90;;;;;;5007248;28;19928;-62
2020/12/31 00:36:20;;;;;;;;;;;2.50;99.90;;;;;;5007229;28;20285;-62
2020/12/31 00:38:51;;;;;;;;;;;2.50;99.90;;;;;;5007109;28;19922;-63
2020/12/31 00:41:20;;;;;;;;;;;2.60;99.90;;;;;;5007089;28;19929;-62
2020/12/31 00:43:46;;;;;;;;;;;2.60;99.90;;;;;;5007344;28;19918;-63
2020/12/31 00:46:12;;;;;;;;;;;2.60;99.90;;;;;;5007089;28;19921;-63
2020/12/31 00:48:38;;;;;;;;;;;2.70;99.90;;;;;;5006905;28;19926;-62
2020/12/31 00:51:03;;;;;;;;;;;2.70;99.90;;;;;;5006906;28;19928;-62
2020/12/31 00:53:29;;;;;;;;;;;2.60;99.90;;;;;;5006901;28;19932;-62
2020/12/31 00:55:54;;;;;;;;;;;2.70;99.90;;;;;;5006720;28;19921;-62
2020/12/31 00:58:20;;;;;;;;;;;2.70;99.90;;;;;;5006878;28;19922;-62
2020/12/31 01:00:46;;;;;;;;;;;2.70;99.90;;;;;;5006857;28;19922;-62
2020/12/31 01:03:13;;;;;;;;;;;2.70;99.90;;;;;;5006751;28;19928;-62
2020/12/31 01:05:41;;;;;;;;;;;2.70;99.90;;;;;;5006779;28;19952;-62
2020/12/31 01:08:07;;;;;;;;;;;2.80;99.90;;;;;;5006732;28;20016;-62
2020/12/31 01:10:33;;;;;;;;;;;2.80;99.90;;;;;;5006489;28;19922;-63
2020/12/31 01:12:58;;;;;;;;;;;2.70;99.90;;;;;;5006911;28;20326;-62
2020/12/31 01:15:24;;;;;;;;;;;2.70;99.90;;;;;;5006745;28;20346;-61
2020/12/31 01:17:49;;;;;;;;;;;2.70;99.90;;;;;;5006512;28;19922;-62
2020/12/31 01:20:15;;;;;;;;;;;2.70;99.90;;;;;;5006640;28;20404;-62
2020/12/31 01:22:41;;;;;;;;;;;2.80;99.90;;;;;;5006655;28;19929;-62
2020/12/31 01:25:06;;;;;;;;;;;2.80;99.90;;;;;;5006589;28;19962;-62
2020/12/31 01:27:32;;;;;;;;;;;2.80;99.90;;;;;;5006794;28;19981;-63
2020/12/31 01:29:58;;;;;;;;;;;2.80;99.90;;;;;;5006591;28;20377;-62
2020/12/31 01:32:24;;;;;;;;;;;2.80;99.90;;;;;;5006598;28;19922;-62
2020/12/31 01:34:53;;;;;;;;;;;2.80;99.90;;;;;;5006494;28;19972;-62
2020/12/31 01:37:19;;;;;;;;;;;2.80;99.90;;;;;;5006433;28;20065;-62
2020/12/31 01:39:45;;;;;;;;;;;2.80;99.90;;;;;;5006376;28;19946;-62
2020/12/31 01:42:11;;;;;;;;;;;2.90;99.90;;;;;;5006536;28;19921;-62
2020/12/31 01:44:37;;;;;;;;;;;2.90;99.90;;;;;;5006476;28;19926;-62
2020/12/31 01:47:03;;;;;;;;;;;2.80;99.90;;;;;;5008808;28;19929;-62
2020/12/31 01:49:32;;;;;;;;;;;2.90;99.90;;;;;;5010189;28;19922;-62
2020/12/31 01:51:58;;;;;;;;;;;2.90;99.90;;;;;;5010321;28;19934;-61
2020/12/31 01:54:24;;;;;;;;;;;2.80;99.90;;;;;;5009937;28;19960;-61
2020/12/31 01:56:52;;;;;;;;;;;2.90;99.90;;;;;;5010335;28;19925;-62
2020/12/31 01:59:18;;;;;;;;;;;2.90;99.90;;;;;;5010259;28;19922;-62
2020/12/31 02:01:46;;;;;;;;;;;2.90;99.90;;;;;;5010290;28;19921;-62
2020/12/31 02:04:12;;;;;;;;;;;3.00;99.90;;;;;;5010108;28;19921;-62
2020/12/31 02:06:38;;;;;;;;;;;3.00;99.90;;;;;;5010046;28;19922;-62
2020/12/31 02:09:04;;;;;;;;;;;3.00;99.90;;;;;;5009832;28;20035;-62
2020/12/31 02:11:30;;;;;;;;;;;3.00;99.90;;;;;;5010091;28;19981;-61
2020/12/31 02:13:55;;;;;;;;;;;3.00;99.90;;;;;;5009996;28;19921;-61
2020/12/31 02:16:23;;;;;;;;;;;3.00;99.90;;;;;;5009808;28;19989;-63
2020/12/31 02:18:48;;;;;;;;;;;3.00;99.90;;;;;;5009724;28;19944;-61
2020/12/31 02:21:16;;;;;;;;;;;3.00;99.90;;;;;;5009898;28;19945;-62
2020/12/31 02:23:42;;;;;;;;;;;3.00;99.90;;;;;;5009735;28;19928;-61
2020/12/31 02:26:08;;;;;;;;;;;3.00;99.90;;;;;;5009721;28;19929;-63
2020/12/31 02:28:33;;;;;;;;;;;3.00;99.90;;;;;;5009652;28;19922;-63
2020/12/31 02:30:59;;;;;;;;;;;3.00;99.90;;;;;;5009678;28;19928;-63
2020/12/31 02:33:25;;;;;;;;;;;3.00;99.90;;;;;;5009675;28;19928;-63
2020/12/31 02:35:50;;;;;;;;;;;3.00;99.90;;;;;;5009580;28;19922;-61
2020/12/31 02:38:16;;;;;;;;;;;3.00;99.90;;;;;;5009699;28;19929;-63
2020/12/31 02:40:41;;;;;;;;;;;3.00;99.90;;;;;;5009460;28;19918;-63
2020/12/31 02:43:07;;;;;;;;;;;3.00;99.90;;;;;;5009507;28;19926;-63
2020/12/31 02:45:33;;;;;;;;;;;3.00;99.90;;;;;;5009583;28;19933;-63
2020/12/31 02:47:58;;;;;;;;;;;3.00;99.90;;;;;;5009185;28;19933;-62
2020/12/31 02:50:24;;;;;;;;;;;3.00;99.90;;;;;;5009350;28;19928;-62
2020/12/31 02:52:50;;;;;;;;;;;3.00;99.90;;;;;;5009328;28;19953;-62
2020/12/31 02:55:15;;;;;;;;;;;2.90;99.90;;;;;;5009086;28;19928;-62
2020/12/31 02:57:41;;;;;;;;;;;3.00;99.90;;;;;;5007901;28;19922;-62
2020/12/31 03:00:06;;;;;;;;;;;3.00;99.90;;;;;;5009133;28;19926;-62
2020/12/31 03:02:33;;;;;;;;;;;3.00;99.90;;;;;;5009158;28;19928;-62
2020/12/31 03:04:58;;;;;;;;;;;3.00;99.90;;;;;;5009061;28;19922;-62
2020/12/31 03:07:24;;;;;;;;;;;3.00;99.90;;;;;;5008875;28;19922;-62
2020/12/31 03:09:50;;;;;;;;;;;3.00;99.90;;;;;;5008695;28;19921;-62
2020/12/31 03:12:15;;;;;;;;;;;3.00;99.90;;;;;;5009142;28;19945;-62
2020/12/31 03:14:41;;;;;;;;;;;3.00;99.90;;;;;;5008928;28;19981;-62
2020/12/31 03:17:07;;;;;;;;;;;3.00;99.90;;;;;;5008859;28;19967;-62
2020/12/31 03:19:32;;;;;;;;;;;3.00;99.90;;;;;;5008825;28;19929;-62
2020/12/31 03:21:58;;;;;;;;;;;3.10;99.90;;;;;;5008734;28;19918;-62
2020/12/31 03:24:23;;;;;;;;;;;3.10;99.90;;;;;;5008493;28;19921;-62
2020/12/31 03:26:49;;;;;;;;;;;3.10;99.90;;;;;;5008493;28;19953;-63
2020/12/31 03:29:15;;;;;;;;;;;3.10;99.90;;;;;;5008417;28;19921;-62
2020/12/31 03:31:40;;;;;;;;;;;3.00;99.90;;;;;;5008585;28;20408;-62
2020/12/31 03:34:06;;;;;;;;;;;3.10;99.90;;;;;;5008524;28;19918;-62
2020/12/31 03:36:32;;;;;;;;;;;3.00;99.90;;;;;;5008602;28;19922;-62
2020/12/31 03:38:57;;;;;;;;;;;3.10;99.90;;;;;;5008281;28;19926;-62
2020/12/31 03:41:23;;;;;;;;;;;3.10;99.90;;;;;;5008429;28;19949;-63
2020/12/31 03:43:49;;;;;;;;;;;3.00;99.90;;;;;;5008272;28;19981;-62
2020/12/31 03:46:14;;;;;;;;;;;3.00;99.90;;;;;;5008220;28;19922;-62
2020/12/31 03:48:40;;;;;;;;;;;3.00;99.90;;;;;;5007910;28;19922;-62
2020/12/31 03:51:06;;;;;;;;;;;2.90;99.90;;;;;;5008186;28;19948;-62
2020/12/31 03:53:31;;;;;;;;;;;2.90;99.90;;;;;;5008075;28;19918;-62
2020/12/31 03:55:57;;;;;;;;;;;2.80;99.90;;;;;;5007793;28;19921;-62
2020/12/31 03:58:23;;;;;;;;;;;2.80;99.90;;;;;;5007947;28;20279;-62
2020/12/31 04:00:48;;;;;;;;;;;2.70;99.90;;;;;;5007917;28;20278;-62
2020/12/31 04:03:14;;;;;;;;;;;2.70;99.90;;;;;;5007882;28;19922;-62
2020/12/31 04:05:40;;;;;;;;;;;2.60;99.90;;;;;;5008029;28;19956;-62
2020/12/31 04:08:05;;;;;;;;;;;2.60;99.90;;;;;;5007789;28;19928;-62
2020/12/31 04:10:31;;;;;;;;;;;2.60;99.90;;;;;;5007217;28;19921;-62
2020/12/31 04:12:57;;;;;;;;;;;2.50;99.90;;;;;;5007801;28;19957;-62
2020/12/31 04:15:22;;;;;;;;;;;2.50;99.90;;;;;;5007659;28;19918;-62
2020/12/31 04:17:48;;;;;;;;;;;2.50;99.90;;;;;;5007541;28;19929;-62
2020/12/31 04:20:14;;;;;;;;;;;2.50;99.90;;;;;;5007621;28;19918;-62
2020/12/31 04:22:39;;;;;;;;;;;2.50;99.90;;;;;;5007524;28;19928;-62
2020/12/31 04:25:05;;;;;;;;;;;2.50;99.90;;;;;;5007461;28;20396;-62
2020/12/31 04:27:30;;;;;;;;;;;2.50;99.90;;;;;;5007456;28;19945;-62
2020/12/31 04:29:56;;;;;;;;;;;2.50;99.90;;;;;;5007462;28;19960;-62
2020/12/31 04:32:22;;;;;;;;;;;2.50;99.90;;;;;;5007387;28;19933;-62
2020/12/31 04:34:47;;;;;;;;;;;2.40;99.90;;;;;;5007535;28;19922;-62
2020/12/31 04:37:13;;;;;;;;;;;2.40;99.90;;;;;;5007321;28;19964;-62
2020/12/31 04:39:39;;;;;;;;;;;2.30;99.90;;;;;;5007066;28;20381;-62
2020/12/31 04:42:04;;;;;;;;;;;2.30;99.90;;;;;;5007201;28;19918;-62
2020/12/31 04:44:30;;;;;;;;;;;2.30;99.90;;;;;;5007178;28;19948;-62
2020/12/31 04:46:57;;;;;;;;;;;2.30;99.90;;;;;;5007131;28;19945;-62
2020/12/31 04:49:27;;;;;;;;;;;2.30;99.90;;;;;;5007099;28;19985;-62
2020/12/31 04:51:54;;;;;;;;;;;2.30;99.90;;;;;;5007253;28;19968;-62
2020/12/31 04:54:19;;;;;;;;;;;2.30;99.90;;;;;;5007925;28;19929;-63
2020/12/31 04:56:46;;;;;;;;;;;2.30;99.90;;;;;;5005734;28;19944;-62
2020/12/31 04:59:11;;;;;;;;;;;2.40;99.90;;;;;;5007176;28;19993;-63
2020/12/31 05:01:40;;;;;;;;;;;2.40;99.90;;;;;;5007102;28;19949;-62
2020/12/31 05:04:06;;;;;;;;;;;2.40;99.90;;;;;;5007178;28;19921;-62
2020/12/31 05:06:34;;;;;;;;;;;2.40;99.90;;;;;;5006939;28;19981;-62
2020/12/31 05:09:12;;;;;;;;;;;2.40;99.90;;;;;;5007057;28;19922;-63
2020/12/31 05:11:41;;;;;;;;;;;2.50;99.90;;;;;;5006846;28;19933;-62
2020/12/31 05:14:07;;;;;;;;;;;2.40;99.90;;;;;;5006887;28;19977;-63
2020/12/31 05:16:32;;;;;;;;;;;2.40;99.90;;;;;;5006968;28;19921;-63
2020/12/31 05:18:58;;;;;;;;;;;2.40;99.90;;;;;;5007001;28;19949;-63
2020/12/31 05:21:23;;;;;;;;;;;2.40;99.90;;;;;;5008465;28;19921;-63
2020/12/31 05:23:49;;;;;;;;;;;2.40;99.90;;;;;;5010816;28;19929;-62
2020/12/31 05:26:27;;;;;;;;;;;2.40;99.90;;;;;;5010702;28;19921;-62
2020/12/31 05:28:53;;;;;;;;;;;2.40;99.90;;;;;;5010633;28;19945;-62
2020/12/31 05:31:21;;;;;;;;;;;2.40;99.90;;;;;;5010649;28;19925;-62
2020/12/31 05:33:46;;;;;;;;;;;2.30;99.90;;;;;;5010560;28;19921;-62
2020/12/31 05:36:19;;;;;;;;;;;2.40;99.90;;;;;;5010602;28;19944;-62
2020/12/31 05:38:54;;;;;;;;;;;2.30;99.90;;;;;;5010434;28;19933;-62
2020/12/31 05:41:20;;;;;;;;;;;2.30;99.90;;;;;;5010540;28;19929;-62
2020/12/31 05:43:52;;;;;;;;;;;2.40;99.90;;;;;;5010382;28;19921;-63
2020/12/31 05:46:18;;;;;;;;;;;2.30;99.90;;;;;;5010440;28;19944;-63
2020/12/31 05:48:44;;;;;;;;;;;2.40;99.90;;;;;;5010063;28;20386;-63
2020/12/31 05:51:19;;;;;;;;;;;2.40;99.90;;;;;;5010452;28;20006;-62
2020/12/31 05:53:46;;;;;;;;;;;2.30;99.90;;;;;;5010418;28;19938;-63
2020/12/31 05:56:12;;;;;;;;;;;2.30;99.90;;;;;;5010037;28;19951;-62
2020/12/31 05:58:43;;;;;;;;;;;2.30;99.90;;;;;;5010215;28;20282;-62
2020/12/31 06:01:11;;;;;;;;;;;2.30;99.90;;;;;;5010046;28;19921;-62
2020/12/31 06:03:44;;;;;;;;;;;2.30;99.90;;;;;;5010324;28;19932;-63
2020/12/31 06:06:11;;;;;;;;;;;2.40;99.90;;;;;;5010112;28;19928;-63
2020/12/31 06:08:45;;;;;;;;;;;2.40;99.90;;;;;;5010000;28;19952;-63
2020/12/31 06:11:13;;;;;;;;;;;2.40;99.90;;;;;;5010123;28;19992;-63
2020/12/31 06:13:47;;;;;;;;;;;2.40;99.90;;;;;;5009735;28;19929;-62
2020/12/31 06:16:15;;;;;;;;;;;2.40;99.90;;;;;;5009923;28;19926;-63
2020/12/31 06:18:43;;;;;;;;;;;2.40;99.90;;;;;;5009787;28;19936;-62
2020/12/31 06:21:13;;;;;;;;;;;2.40;99.90;;;;;;5009864;28;19921;-63
2020/12/31 06:23:39;;;;;;;;;;;2.30;99.90;;;;;;5009786;28;20005;-63
2020/12/31 06:26:10;;;;;;;;;;;2.30;99.90;;;;;;5009818;28;19921;-63
2020/12/31 06:28:36;;;;;;;;;;;2.30;99.90;;;;;;5009453;28;19972;-63
2020/12/31 06:31:01;;;;;;;;;;;2.40;99.90;;;;;;5009632;28;19921;-63
2020/12/31 06:33:44;;;;;;;;;;;2.40;99.90;;;;;;5009210;28;19948;-63
2020/12/31 06:36:11;;;;;;;;;;;2.40;99.90;;;;;;5009597;28;19922;-62
2020/12/31 06:38:39;;;;;;;;;;;2.40;99.90;;;;;;5009452;28;19926;-63
2020/12/31 06:41:06;;;;;;;;;;;2.40;99.90;;;;;;5009501;28;19922;-63
2020/12/31 06:43:33;;;;;;;;;;;2.40;99.90;;;;;;5009587;28;19949;-63
2020/12/31 06:45:58;;;;;;;;;;;2.40;99.90;;;;;;5009367;28;19922;-63
2020/12/31 06:48:24;;;;;;;;;;;2.40;99.90;;;;;;5009056;28;19928;-63
2020/12/31 06:50:54;;;;;;;;;;;2.40;99.90;;;;;;5009166;28;19953;-62
2020/12/31 06:53:38;;;;;;;;;;;2.40;99.90;;;;;;5009163;28;19925;-63
2020/12/31 06:56:08;;;;;;;;;;;2.40;99.90;;;;;;5009024;28;20009;-62
2020/12/31 06:58:34;;;;;;;;;;;2.30;99.90;;;;;;5009040;28;19921;-63
2020/12/31 07:01:00;;;;;;;;;;;2.40;99.90;;;;;;5009172;28;19921;-63
2020/12/31 07:03:45;;;;;;;;;;;2.40;99.90;;;;;;5009019;28;19928;-63
2020/12/31 07:06:20;;;;;;;;;;;2.30;99.90;;;;;;5008991;28;20374;-63
2020/12/31 07:08:46;;;;;;;;;;;2.40;99.90;;;;;;5008751;28;19922;-63
2020/12/31 07:11:11;;;;;;;;;;;2.40;99.90;;;;;;5008983;28;20419;-63
2020/12/31 07:13:38;;;;;;;;;;;2.30;99.90;;;;;;5008948;28;19926;-63
2020/12/31 07:16:04;;;;;;;;;;;2.30;99.90;;;;;;5008736;28;19989;-63
2020/12/31 07:18:31;;;;;;;;;;;2.30;99.90;;;;;;5008726;28;20388;-63
2020/12/31 07:20:58;;;;;;;;;;;2.30;99.90;;;;;;5008671;28;19961;-63
2020/12/31 07:23:35;;;;;;;;;;;2.30;99.90;;;;;;5008770;28;19992;-63
2020/12/31 07:26:02;;;;;;;;;;;2.30;99.90;;;;;;5008626;28;19921;-63
2020/12/31 07:28:27;;;;;;;;;;;2.40;99.90;;;;;;5008380;28;19926;-63
2020/12/31 07:30:53;;;;;;;;;;;2.40;99.90;;;;;;5008513;28;19928;-63
2020/12/31 07:33:37;;;;;;;;;;;2.40;99.90;;;;;;5008514;28;19922;-63
2020/12/31 07:36:12;;;;;;;;;;;2.40;99.90;;;;;;5008486;28;19961;-63
2020/12/31 07:38:38;;;;;;;;;;;2.50;99.90;;;;;;5008406;28;19926;-63
2020/12/31 07:41:04;;;;;;;;;;;2.40;99.90;;;;;;5008369;28;19922;-62
2020/12/31 07:43:30;;;;;;;;;;;2.50;99.90;;;;;;5007651;28;19921;-63
2020/12/31 07:46:02;;;;;;;;;;;2.50;99.90;;;;;;5008352;28;19929;-63
2020/12/31 07:48:29;;;;;;;;;;;2.50;99.90;;;;;;5008075;28;19945;-63
2020/12/31 07:50:55;;;;;;;;;;;2.50;99.90;;;;;;5008425;28;20016;-63
2020/12/31 07:53:21;;;;;;;;;;;2.50;99.90;;;;;;5008076;28;19944;-66
2020/12/31 07:55:48;;;;;;;;;;;2.50;99.90;;;;;;5006785;28;19921;-62
2020/12/31 07:58:15;;;;;;;;;;;2.50;99.90;;;;;;5007859;28;19922;-64
2020/12/31 08:00:41;;;;;;;;;;;2.50;99.90;;;;;;5008015;28;19944;-63
2020/12/31 08:03:10;;;;;;;;;;;2.50;99.90;;;;;;5008026;28;19922;-64
2020/12/31 08:05:36;;;;;;;;;;;2.50;99.90;;;;;;5008057;28;19926;-63
2020/12/31 08:08:02;;;;;;;;;;;2.60;99.90;;;;;;5007911;28;19930;-62
2020/12/31 08:10:35;;;;;;;;;;;2.60;99.90;;;;;;5007710;28;19993;-62
2020/12/31 08:13:04;;;;;;;;;;;2.60;99.90;;;;;;5008027;28;19921;-62
2020/12/31 08:15:31;;;;;;;;;;;2.60;99.90;;;;;;5007724;28;19928;-63
2020/12/31 08:17:58;;;;;;;;;;;2.60;99.90;;;;;;5007764;28;19926;-62
2020/12/31 08:20:25;;;;;;;;;;;2.60;99.90;;;;;;5007818;28;19921;-62
2020/12/31 08:22:52;;;;;;;;;;;2.60;99.90;;;;;;5007664;28;19922;-62
2020/12/31 08:25:24;;;;;;;;;;;2.60;99.90;;;;;;5007482;28;19925;-64
2020/12/31 08:27:50;;;;;;;;;;;2.60;99.90;;;;;;5007341;28;19922;-63
2020/12/31 08:30:17;;;;;;;;;;;2.50;99.90;;;;;;5007439;28;19929;-62
2020/12/31 08:32:59;;;;;;;;;;;2.50;99.90;;;;;;5007665;28;19921;-62
2020/12/31 08:35:32;;;;;;;;;;;2.40;99.90;;;;;;5007468;28;19953;-62
2020/12/31 08:38:06;;;;;;;;;;;2.40;99.90;;;;;;5007354;28;19929;-64
2020/12/31 08:40:32;;;;;;;;;;;2.30;99.90;;;;;;5007373;28;20361;-64
2020/12/31 08:42:58;;;;;;;;;;;2.30;99.90;;;;;;5007438;28;20016;-62
2020/12/31 08:45:25;;;;;;;;;;;2.30;99.90;;;;;;5007270;28;19918;-64
2020/12/31 08:47:50;;;;;;;;;;;2.30;99.90;;;;;;5007062;28;19922;-62
2020/12/31 08:50:16;;;;;;;;;;;2.20;99.90;;;;;;5007036;28;20026;-62
2020/12/31 08:52:42;;;;;;;;;;;2.20;99.90;;;;;;5007196;28;19921;-62
2020/12/31 08:55:08;;;;;;;;;;;2.20;99.90;;;;;;5006910;28;19929;-62
2020/12/31 08:57:34;;;;;;;;;;;2.10;99.90;;;;;;5007095;28;20366;-62
2020/12/31 08:59:59;;;;;;;;;;;2.20;99.90;;;;;;5007067;28;19945;-63
2020/12/31 09:02:25;;;;;;;;;;;2.10;99.90;;;;;;5006995;28;19959;-63
2020/12/31 09:05:13;;;;;;;;;;;2.10;99.90;;;;;;5006910;28;20016;-63
2020/12/31 09:07:39;;;;;;;;;;;2.10;99.90;;;;;;5006794;28;19922;-62
2020/12/31 09:10:12;;;;;;;;;;;2.00;99.90;;;;;;5006993;28;19922;-63
2020/12/31 09:12:38;;;;;;;;;;;2.00;99.90;;;;;;5006882;28;19926;-63
2020/12/31 09:15:05;;;;;;;;;;;2.00;99.90;;;;;;5006874;28;19929;-63
2020/12/31 09:17:32;;;;;;;;;;;2.00;99.90;;;;;;5006683;28;19922;-64
2020/12/31 09:19:58;;;;;;;;;;;2.00;99.90;;;;;;5006757;28;19929;-63
2020/12/31 09:22:24;;;;;;;;;;;2.10;99.90;;;;;;5006891;28;19922;-63
2020/12/31 09:24:51;;;;;;;;;;;2.10;99.90;;;;;;5006855;28;20449;-63
2020/12/31 09:27:23;;;;;;;;;;;2.10;99.90;;;;;;5006722;28;20309;-63
2020/12/31 09:29:59;;;;;;;;;;;2.10;99.90;;;;;;5006740;28;20010;-63
2020/12/31 09:32:24;;;;;;;;;;;2.10;99.90;;;;;;5006600;28;19991;-63
2020/12/31 09:34:50;;;;;;;;;;;2.20;99.90;;;;;;5006708;28;19922;-63
2020/12/31 09:37:16;;;;;;;;;;;2.20;99.90;;;;;;5006582;28;19921;-64
2020/12/31 09:39:42;;;;;;;;;;;2.30;99.90;;;;;;5006667;28;19918;-63
2020/12/31 09:42:08;;;;;;;;;;;2.30;99.90;;;;;;5006805;28;19926;-63
2020/12/31 09:44:33;;;;;;;;;;;2.40;99.90;;;;;;5006605;28;19929;-63
2020/12/31 09:46:59;;;;;;;;;;;2.40;99.90;;;;;;5006263;28;19924;-63
2020/12/31 09:49:25;;;;;;;;;;;2.60;99.90;;;;;;5006367;28;19956;-63
2020/12/31 09:51:50;;;;;;;;;;;2.70;99.90;;;;;;5006519;28;19926;-63
2020/12/31 09:54:16;;;;;;;;;;;2.80;99.90;;;;;;5006641;28;19963;-64
2020/12/31 09:56:42;;;;;;;;;;;2.90;99.90;;;;;;5006205;28;19944;-64
2020/12/31 09:59:08;;;;;;;;;;;3.10;99.90;;;;;;5006395;28;19926;-64
2020/12/31 10:01:34;;;;;;;;;;;3.10;99.90;;;;;;5006436;28;19944;-64
2020/12/31 10:03:59;;;;;;;;;;;3.20;99.90;;;;;;5006416;28;19921;-64
2020/12/31 10:06:25;;;;;;;;;;;3.20;99.90;;;;;;5021581;28;19929;-64
2020/12/31 10:08:51;;;;;;;;;;;3.20;99.90;;;;;;5009946;28;19941;-64
2020/12/31 10:11:18;;;;;;;;;;;3.30;99.90;;;;;;5010332;28;19925;-63
2020/12/31 10:13:43;;;;;;;;;;;3.30;99.90;;;;;;5010030;28;19928;-64
2020/12/31 10:16:09;;;;;;;;;;;3.30;99.90;;;;;;5009872;28;20016;-64
2020/12/31 10:18:35;;;;;;;;;;;3.30;99.90;;;;;;5009704;28;19922;-64
2020/12/31 10:21:00;;;;;;;;;;;3.30;99.90;;;;;;5009978;28;19922;-64
2020/12/31 10:23:26;;;;;;;;;;;3.30;99.90;;;;;;5009848;28;19922;-65
2020/12/31 10:25:52;;;;;;;;;;;3.40;99.90;;;;;;5010005;28;19922;-64
2020/12/31 10:28:18;;;;;;;;;;;3.40;99.90;;;;;;5009677;28;19926;-63
2020/12/31 10:30:44;;;;;;;;;;;3.50;99.90;;;;;;5009500;28;19922;-64
2020/12/31 10:33:09;;;;;;;;;;;3.50;99.90;;;;;;5009517;28;19968;-64
2020/12/31 10:35:35;;;;;;;;;;;3.70;99.90;;;;;;5009519;28;19941;-64
2020/12/31 10:38:01;;;;;;;;;;;3.80;99.90;;;;;;5009749;28;19928;-64
2020/12/31 10:40:26;;;;;;;;;;;3.80;99.90;;;;;;5009566;28;19940;-64
2020/12/31 10:42:52;;;;;;;;;;;3.80;99.90;;;;;;5009452;28;20041;-64
2020/12/31 10:45:18;;;;;;;;;;;3.70;99.90;;;;;;5009324;28;19921;-64
2020/12/31 10:47:43;;;;;;;;;;;3.60;99.90;;;;;;5009077;28;19984;-64
2020/12/31 10:50:09;;;;;;;;;;;3.60;99.90;;;;;;5009275;28;19926;-64
2020/12/31 10:52:34;;;;;;;;;;;3.50;99.90;;;;;;5009455;28;19928;-64
2020/12/31 10:55:00;;;;;;;;;;;3.50;99.90;;;;;;5008828;28;20074;-65
2020/12/31 10:57:26;;;;;;;;;;;3.50;99.90;;;;;;5009145;28;19922;-65
2020/12/31 10:59:52;;;;;;;;;;;3.40;99.90;;;;;;5009196;28;19968;-63
2020/12/31 11:02:17;;;;;;;;;;;3.40;99.90;;;;;;5009114;28;19932;-64
2020/12/31 11:04:43;;;;;;;;;;;3.40;99.90;;;;;;5009246;28;19957;-64
2020/12/31 11:07:12;;;;;;;;;;;3.30;99.90;;;;;;5009047;28;19922;-64
2020/12/31 11:09:37;;;;;;;;;;;3.30;99.90;;;;;;5008803;28;19926;-64
2020/12/31 11:12:03;;;;;;;;;;;3.30;99.90;;;;;;5008806;28;19985;-64
2020/12/31 11:14:29;;;;;;;;;;;3.30;99.90;;;;;;5008751;28;19928;-64
2020/12/31 11:16:55;;;;;;;;;;;3.30;99.90;;;;;;5008736;28;19944;-64
2020/12/31 11:19:21;;;;;;;;;;;3.40;99.90;;;;;;5007346;28;19922;-64
2020/12/31 11:21:49;;;;;;;;;;;3.40;99.90;;;;;;5008847;28;19964;-64
2020/12/31 11:24:15;;;;;;;;;;;3.40;99.90;;;;;;5008654;28;19929;-64
2020/12/31 11:26:41;;;;;;;;;;;3.50;99.90;;;;;;5008844;28;20005;-64
2020/12/31 11:29:06;;;;;;;;;;;3.60;99.90;;;;;;5008552;28;19929;-64
2020/12/31 11:31:32;;;;;;;;;;;3.60;99.90;;;;;;5008303;28;19921;-64
2020/12/31 11:34:00;;;;;;;;;;;3.60;99.90;;;;;;5008463;28;19929;-64
2020/12/31 11:36:25;;;;;;;;;;;3.60;99.90;;;;;;5008848;28;19922;-64
2020/12/31 11:38:52;;;;;;;;;;;3.60;99.90;;;;;;5008199;28;19925;-64
2020/12/31 11:41:18;;;;;;;;;;;3.60;99.90;;;;;;5008253;28;20396;-64
2020/12/31 11:43:43;;;;;;;;;;;3.60;99.90;;;;;;5008359;28;20022;-64
2020/12/31 11:46:09;;;;;;;;;;;3.60;99.90;;;;;;5008054;28;19949;-64
2020/12/31 11:48:35;;;;;;;;;;;3.60;99.90;;;;;;5007982;28;19921;-65
2020/12/31 11:51:01;;;;;;;;;;;3.60;99.90;;;;;;5008233;28;20285;-64
2020/12/31 11:53:27;;;;;;;;;;;3.70;99.90;;;;;;5008086;28;19921;-64
2020/12/31 11:55:53;;;;;;;;;;;3.60;99.90;;;;;;5008027;28;19944;-64
2020/12/31 11:58:18;;;;;;;;;;;3.60;99.90;;;;;;5007822;28;19929;-64
2020/12/31 12:00:44;;;;;;;;;;;3.60;99.90;;;;;;5007826;28;20300;-64
2020/12/31 12:03:10;;;;;;;;;;;3.60;99.90;;;;;;5007853;28;19926;-64
2020/12/31 12:05:36;;;;;;;;;;;3.60;99.90;;;;;;5008054;28;19945;-64
2020/12/31 12:08:02;;;;;;;;;;;3.60;99.90;;;;;;5007651;28;19928;-64
2020/12/31 12:10:28;;;;;;;;;;;3.60;99.90;;;;;;5007698;28;19925;-64
2020/12/31 12:12:54;;;;;;;;;;;3.70;99.90;;;;;;5007572;28;19922;-64
2020/12/31 12:15:19;;;;;;;;;;;3.70;99.90;;;;;;5007574;28;19990;-64
2020/12/31 12:17:49;;;;;;;;;;;3.70;99.90;;;;;;5007360;28;19918;-64
2020/12/31 12:20:15;;;;;;;;;;;3.70;99.90;;;;;;5007565;28;19921;-64
2020/12/31 12:22:41;;;;;;;;;;;3.70;99.90;;;;;;5007611;28;19929;-64
2020/12/31 12:25:07;;;;;;;;;;;3.70;99.90;;;;;;5007525;28;20348;-64
2020/12/31 12:27:33;;;;;;;;;;;3.70;99.90;;;;;;5007391;28;19929;-64
2020/12/31 12:29:59;;;;;;;;;;;3.80;99.90;;;;;;5007027;28;19928;-64
2020/12/31 12:32:24;;;;;;;;;;;3.90;99.90;;;;;;5007568;28;19934;-64
2020/12/31 12:34:50;;;;;;;;;;;3.90;99.90;;;;;;5007557;28;19922;-64
2020/12/31 12:37:15;;;;;;;;;;;3.80;99.90;;;;;;5007186;28;19921;-64
2020/12/31 12:39:41;;;;;;;;;;;3.80;99.90;;;;;;5007375;28;19921;-64
2020/12/31 12:42:07;;;;;;;;;;;3.80;99.90;;;;;;5007292;28;20416;-64
2020/12/31 12:44:32;;;;;;;;;;;3.90;99.90;;;;;;5007098;28;19922;-64
2020/12/31 12:46:58;;;;;;;;;;;3.90;99.90;;;;;;5007090;28;19957;-64
2020/12/31 12:49:24;;;;;;;;;;;3.80;99.90;;;;;;5007128;28;19968;-64
2020/12/31 12:51:49;;;;;;;;;;;3.90;99.90;;;;;;5007144;28;20328;-64
2020/12/31 12:54:15;;;;;;;;;;;3.90;99.90;;;;;;5007111;28;20005;-64
2020/12/31 12:56:41;;;;;;;;;;;3.90;99.90;;;;;;5006779;28;19940;-64
2020/12/31 12:59:06;;;;;;;;;;;3.80;99.90;;;;;;5006989;28;19921;-63
2020/12/31 13:01:32;;;;;;;;;;;3.80;99.90;;;;;;5007080;28;20481;-63
2020/12/31 13:03:58;;;;;;;;;;;3.80;99.90;;;;;;5006813;28;19968;-63
2020/12/31 13:06:23;;;;;;;;;;;3.80;99.90;;;;;;5006820;28;20012;-63
2020/12/31 13:08:49;;;;;;;;;;;3.70;99.90;;;;;;5006671;28;19922;-63
2020/12/31 13:11:18;;;;;;;;;;;3.80;99.90;;;;;;5006846;28;19929;-63
2020/12/31 13:13:44;;;;;;;;;;;3.90;99.90;;;;;;5006869;28;19922;-63
2020/12/31 13:16:10;;;;;;;;;;;3.90;99.90;;;;;;5006867;28;19968;-63
2020/12/31 13:18:36;;;;;;;;;;;3.80;99.90;;;;;;5006601;28;19929;-63
2020/12/31 13:21:02;;;;;;;;;;;3.90;99.90;;;;;;5006647;28;19929;-63
2020/12/31 13:23:27;;;;;;;;;;;3.80;99.90;;;;;;5006697;28;20389;-63
2020/12/31 13:25:54;;;;;;;;;;;3.90;99.90;;;;;;5006771;28;19945;-62
2020/12/31 13:28:20;;;;;;;;;;;3.90;99.90;;;;;;5006683;28;19933;-64
2020/12/31 13:30:46;;;;;;;;;;;3.90;99.90;;;;;;5006843;28;19922;-62
2020/12/31 13:33:12;;;;;;;;;;;3.90;99.90;;;;;;5006821;28;19922;-62
2020/12/31 13:35:38;;;;;;;;;;;3.90;99.90;;;;;;5006722;28;20313;-62
2020/12/31 13:38:04;;;;;;;;;;;3.90;99.90;;;;;;5006619;28;20013;-62
2020/12/31 13:40:30;;;;;;;;;;;3.90;99.90;;;;;;5006652;28;20377;-62
2020/12/31 13:42:55;;;;;;;;;;;3.90;99.90;;;;;;5008811;28;19988;-64
2020/12/31 13:45:21;;;;;;;;;;;3.90;99.90;;;;;;5010548;28;19957;-63
2020/12/31 13:47:47;;;;;;;;;;;4.10;99.90;;;;;;5010350;28;19922;-63
2020/12/31 13:50:13;;;;;;;;;;;4.10;99.90;;;;;;5010432;28;19921;-63
2020/12/31 13:52:39;;;;;;;;;;;4.10;99.90;;;;;;5010321;28;20408;-64
2020/12/31 13:55:05;;;;;;;;;;;4.20;99.90;;;;;;5010516;28;19925;-63
2020/12/31 13:57:31;;;;;;;;;;;4.10;99.90;;;;;;5009132;28;19921;-63
2020/12/31 13:59:57;;;;;;;;;;;4.10;99.90;;;;;;5008956;28;19928;-64
2020/12/31 14:02:22;;;;;;;;;;;4.20;99.90;;;;;;5009091;28;19928;-63
2020/12/31 14:04:48;;;;;;;;;;;4.30;99.90;;;;;;5008910;28;19924;-64
2020/12/31 14:07:14;;;;;;;;;;;4.30;99.90;;;;;;5008822;28;19926;-64
2020/12/31 14:09:39;;;;;;;;;;;4.20;99.90;;;;;;5008900;28;19921;-64
2020/12/31 14:12:05;;;;;;;;;;;4.20;99.90;;;;;;5008844;28;19941;-64
2020/12/31 14:14:31;;;;;;;;;;;4.20;99.90;;;;;;5008969;28;19921;-64
2020/12/31 14:16:58;;;;;;;;;;;4.20;99.90;;;;;;5008866;28;19960;-64
2020/12/31 14:19:24;;;;;;;;;;;4.10;99.90;;;;;;5008677;28;19976;-64
2020/12/31 14:21:50;;;;;;;;;;;4.10;99.90;;;;;;5008774;28;19926;-63
2020/12/31 14:24:15;;;;;;;;;;;4.10;99.90;;;;;;5008705;28;19961;-63
2020/12/31 14:26:41;;;;;;;;;;;4.10;99.90;;;;;;5008604;28;19922;-63
2020/12/31 14:29:07;;;;;;;;;;;4.00;99.90;;;;;;5008495;28;19953;-63